KOLY/OLY METAR and TAF weather

Enter ICAO airport designator
Station Type Date Time Source
KOLY METAR 2019/08/26 06:55 UTC NOAA

KOLY 260655Z AUTO 15006KT 10SM OVC007 22/22 A2987 RMK AO2 T02160216


Station Type Date Time Source
KOLY Decoded METAR 2019/08/26 06:55 UTC NOAA

Station name not available
Aug 26, 2019 - 02:55 AM EDT / 2019.08.26 0655 UTC
Wind: from the SSE (150 degrees) at 7 MPH (6 KT):0
Visibility: 10 mile(s):0
Sky conditions: overcast
Temperature: 70.9 F (21.6 C)
Dew Point: 70.9 F (21.6 C)
Relative Humidity: 100%
Pressure (altimeter): 29.87 in. Hg (1011 hPa)
ob: KOLY 260655Z AUTO 15006KT 10SM OVC007 22/22 A2987 RMK AO2 T02160216
cycle: 7

Station Type Date Time Source
KOLY TAF UTC NOAA

Error!

Example: see airport list